Terminal Aerodrome Forecast
Issued by NWS Wilmington, OH

Current Version | Previous Version | Text Only | Print | Product List | Glossary Off
Versions: 1 2 3 4 5 6 7 8 9 10 11 12 13 14 15 16 17 18 19

994
FTUS41 KILN 101128
TAFILN
TAF
KILN 101128Z 1012/1112 26012G20KT 3SM -SHSN OVC025
      TEMPO 1012/1016 1SM -SHSN OVC015
     FM101800 28016G22KT 4SM -SHSN OVC025
     FM110000 27010KT P6SM BKN035=

USA.gov is the U.S. government's official web portal to all federal, state and local government web resources and services.